Time;durP1;ratioP1;P1;durP2;ratioP2;P2;SDS_P1;SDS_P2;PMS_P1;PMS_P2;Temp;Humidity;BMP_temperature;BMP_pressure;BME280_temperature;BME280_humidity;BME280_pressure;Samples;Min_cycle;Max_cycle;Signal;HPM_P1;HPM_P2
2021/06/21 03:59:37;;;;;;;;;;;;;;;23.66;61.48;100180.88;5034842;23;19930;-89
2021/06/21 04:02:03;;;;;;;;;;;;;;;23.75;61.22;100188.19;4924142;28;20017;-90
2021/06/21 04:04:29;;;;;;;;;;;;;;;23.84;60.39;100183.09;4940765;28;19933;-91
2021/06/21 04:06:56;;;;;;;;;;;;;;;23.90;59.96;100185.16;4940639;28;19949;-89
2021/06/21 04:09:22;;;;;;;;;;;;;;;24.00;59.08;100188.44;4956544;28;20406;-92
2021/06/21 04:11:49;;;;;;;;;;;;;;;24.07;57.68;100189.34;4955769;28;19930;-91
2021/06/21 04:14:15;;;;;;;;;;;;;;;24.14;58.14;100188.63;4940112;28;20323;-89
2021/06/21 04:16:41;;;;;;;;;;;;;;;24.20;57.98;100183.47;4955971;28;19988;-90
2021/06/21 04:19:07;;;;;;;;;;;;;;;24.28;57.35;100190.75;4940452;28;20381;-89
2021/06/21 04:21:33;;;;;;;;;;;;;;;24.35;57.45;100193.59;4939357;28;19985;-91
2021/06/21 04:23:59;;;;;;;;;;;;;;;24.41;57.27;100186.50;4939879;28;19925;-89
2021/06/21 04:26:26;;;;;;;;;;;;;;;24.48;58.24;100188.56;4947101;28;19933;-88
2021/06/21 04:28:52;;;;;;;;;;;;;;;24.57;58.00;100183.44;4956247;28;19934;-90
2021/06/21 04:31:18;;;;;;;;;;;;;;;24.65;56.28;100189.91;4940191;28;20310;-91
2021/06/21 04:33:44;;;;;;;;;;;;;;;24.71;56.17;100191.16;4940108;28;19926;-90
2021/06/21 04:36:10;;;;;;;;;;;;;;;24.77;55.64;100187.59;4936445;29;20124;-90
2021/06/21 04:38:37;;;;;;;;;;;;;;;24.84;56.11;100184.84;4923953;28;19965;-90
2021/06/21 04:41:02;;;;;;;;;;;;;;;24.94;55.94;100194.50;4955315;28;19934;-92
2021/06/21 04:43:28;;;;;;;;;;;;;;;25.01;55.41;100186.16;4939837;28;19933;-89
2021/06/21 04:45:54;;;;;;;;;;;;;;;25.09;54.98;100192.59;4972038;28;19926;-91
2021/06/21 04:48:20;;;;;;;;;;;;;;;25.15;55.18;100191.06;4955822;28;20036;-90
2021/06/21 04:50:47;;;;;;;;;;;;;;;25.19;53.69;100197.47;4924763;28;20012;-91
2021/06/21 04:53:14;;;;;;;;;;;;;;;25.27;52.26;100195.53;4941159;28;19961;-89
2021/06/21 04:55:41;;;;;;;;;;;;;;;25.38;52.76;100196.41;4939910;28;20635;-91
2021/06/21 04:58:07;;;;;;;;;;;;;;;25.46;51.39;100195.25;4955522;28;19932;-90
2021/06/21 05:00:34;;;;;;;;;;;;;;;25.53;50.36;100195.28;4972780;28;20065;-89
2021/06/21 05:03:00;;;;;;;;;;;;;;;25.65;51.78;100193.31;4955980;28;20013;-89
2021/06/21 05:05:26;;;;;;;;;;;;;;;25.73;51.47;100200.56;4924106;28;19926;-91
2021/06/21 05:07:53;;;;;;;;;;;;;;;25.83;51.97;100202.63;4942474;28;19932;-90
2021/06/21 05:10:20;;;;;;;;;;;;;;;25.93;52.36;100196.25;4943814;28;19933;-90
2021/06/21 05:12:47;;;;;;;;;;;;;;;25.99;51.97;100193.84;4955835;28;19929;-90
2021/06/21 05:15:13;;;;;;;;;;;;;;;26.08;50.88;100197.06;4959948;28;20020;-92
2021/06/21 05:17:39;;;;;;;;;;;;;;;26.16;49.69;100201.50;4925283;29;19926;-90
2021/06/21 05:20:08;;;;;;;;;;;;;;;26.26;50.32;100197.13;4937739;28;19977;-91
2021/06/21 05:22:34;;;;;;;;;;;;;;;26.35;49.63;100197.50;4959464;28;19933;-93
2021/06/21 05:25:01;;;;;;;;;;;;;;;26.41;44.98;100197.94;4943954;28;19930;-93
2021/06/21 05:27:29;;;;;;;;;;;;;;;26.45;45.60;100196.72;4927987;28;19929;-90
2021/06/21 05:29:55;;;;;;;;;;;;;;;26.49;45.67;100196.78;4943626;28;20442;-91
2021/06/21 05:32:22;;;;;;;;;;;;;;;26.52;46.12;100189.53;4959938;28;19926;-91
2021/06/21 05:34:47;;;;;;;;;;;;;;;26.57;46.75;100191.97;4975840;28;19980;-91
2021/06/21 05:37:13;;;;;;;;;;;;;;;26.56;45.78;100201.59;4943611;28;19926;-91
2021/06/21 05:39:39;;;;;;;;;;;;;;;26.58;46.94;100194.34;4927708;28;19933;-91
2021/06/21 05:42:05;;;;;;;;;;;;;;;26.61;47.20;100201.19;4943624;28;19934;-90
2021/06/21 05:44:33;;;;;;;;;;;;;;;26.59;46.61;100204.41;4959268;28;19988;-87
2021/06/21 05:46:59;;;;;;;;;;;;;;;26.60;47.22;100202.38;4958047;28;20395;-85
2021/06/21 05:49:28;;;;;;;;;;;;;;;26.61;47.81;100196.38;4975214;28;19933;-83
2021/06/21 05:51:56;;;;;;;;;;;;;;;26.64;47.97;100195.56;4958590;28;19926;-95
2021/06/21 05:54:23;;;;;;;;;;;;;;;26.69;48.60;100200.00;4977288;28;19981;-86
2021/06/21 05:56:49;;;;;;;;;;;;;;;26.77;48.68;100186.75;4944189;28;19926;-93
2021/06/21 05:59:15;;;;;;;;;;;;;;;26.81;48.41;100190.34;4976498;28;19926;-85
2021/06/21 06:01:41;;;;;;;;;;;;;;;26.88;48.03;100190.34;4976436;28;19926;-87
2021/06/21 06:04:06;;;;;;;;;;;;;;;26.96;47.93;100185.53;4976812;28;20020;-95
2021/06/21 06:06:32;;;;;;;;;;;;;;;27.04;47.78;100195.53;4975767;28;20350;-94
2021/06/21 06:08:58;;;;;;;;;;;;;;;27.15;47.17;100191.53;4975902;28;19982;-91
2021/06/21 06:11:25;;;;;;;;;;;;;;;27.21;46.00;100189.09;4976190;28;19997;-88
2021/06/21 06:13:51;;;;;;;;;;;;;;;27.27;46.74;100181.88;4963364;28;19973;-85
2021/06/21 06:16:17;;;;;;;;;;;;;;;27.30;46.69;100181.06;4960947;28;19954;-85
2021/06/21 06:18:44;;;;;;;;;;;;;;;27.33;44.79;100185.88;4975091;28;19969;-85
2021/06/21 06:21:11;;;;;;;;;;;;;;;27.33;45.76;100188.66;4957088;28;20384;-83
2021/06/21 06:23:38;;;;;;;;;;;;;;;27.36;45.16;100185.06;4974970;28;19926;-83
2021/06/21 06:26:04;;;;;;;;;;;;;;;27.42;47.26;100182.63;4974404;28;19926;-76
2021/06/21 06:28:30;;;;;;;;;;;;;;;27.60;45.53;100185.34;4972746;28;19973;-76
2021/06/21 06:31:01;;;;;;;;;;;;;;;27.68;44.35;100188.94;4974165;28;19929;-75
2021/06/21 06:33:29;;;;;;;;;;;;;;;27.66;44.70;100172.50;4974207;28;19926;-77
2021/06/21 06:35:55;;;;;;;;;;;;;;;27.91;44.78;100194.06;4957134;28;19926;-76
2021/06/21 06:38:21;;;;;;;;;;;;;;;27.98;43.92;100188.41;4971298;28;20407;-77
2021/06/21 06:40:46;;;;;;;;;;;;;;;28.06;43.50;100182.34;4985894;28;19926;-77
2021/06/21 06:43:12;;;;;;;;;;;;;;;28.07;44.05;100189.53;4985717;28;19926;-86
2021/06/21 06:45:38;;;;;;;;;;;;;;;28.10;44.45;100179.50;4972017;28;19926;-75
2021/06/21 06:48:05;;;;;;;;;;;;;;;28.14;43.83;100185.09;4972102;28;20415;-82
2021/06/21 06:50:31;;;;;;;;;;;;;;;28.22;43.88;100187.47;4957449;28;19981;-90
2021/06/21 06:52:58;;;;;;;;;;;;;;;28.32;43.92;100182.97;4972742;28;19930;-90
2021/06/21 06:58:08;;;;;;;;;;;;;;;28.53;41.39;100182.81;4972003;28;19937;-75
2021/06/21 07:00:35;;;;;;;;;;;;;;;28.54;42.05;100178.81;4971875;28;19930;-86
2021/06/21 07:03:02;;;;;;;;;;;;;;;28.58;43.31;100187.22;4971731;28;19926;-79
2021/06/21 07:05:28;;;;;;;;;;;;;;;28.63;42.29;100181.13;4970762;28;19933;-79
2021/06/21 07:07:57;;;;;;;;;;;;;;;28.63;40.97;100178.31;4971512;28;19926;-84
2021/06/21 07:10:25;;;;;;;;;;;;;;;28.63;41.63;100180.34;4970502;28;19922;-76
2021/06/21 07:12:51;;;;;;;;;;;;;;;28.67;40.39;100178.28;4972415;28;20311;-84
2021/06/21 07:15:18;;;;;;;;;;;;;;;28.82;42.47;100178.97;4971712;28;19922;-77
2021/06/21 07:17:44;;;;;;;;;;;;;;;28.94;41.95;100176.44;4971370;28;19926;-75
2021/06/21 07:20:11;;;;;;;;;;;;;;;28.97;41.90;100180.41;4971764;28;20396;-76
2021/06/21 07:22:37;;;;;;;;;;;;;;;29.05;41.44;100187.59;4972060;28;19929;-87
2021/06/21 07:25:04;;;;;;;;;;;;;;;29.14;39.74;100182.28;4972608;28;19933;-89
2021/06/21 07:27:30;;;;;;;;;;;;;;;29.15;39.79;100177.44;4970574;28;19930;-78
2021/06/21 07:29:56;;;;;;;;;;;;;;;29.14;41.07;100182.28;4954979;28;19926;-94
2021/06/21 07:32:21;;;;;;;;;;;;;;;29.16;38.63;100179.84;4973489;28;20396;-80
2021/06/21 07:34:48;;;;;;;;;;;;;;;29.12;39.67;100176.28;4972714;28;19933;-91
2021/06/21 07:37:15;;;;;;;;;;;;;;;29.19;40.85;100181.03;4972926;28;20055;-77
2021/06/21 07:39:40;;;;;;;;;;;;;;;29.30;40.38;100178.06;4973023;28;19934;-77
2021/06/21 07:42:07;;;;;;;;;;;;;;;29.26;39.32;100181.72;4970629;28;20025;-77
2021/06/21 07:44:34;;;;;;;;;;;;;;;29.31;40.49;100183.31;4969909;28;20025;-83
2021/06/21 07:47:03;;;;;;;;;;;;;;;29.39;39.51;100182.00;4972134;28;20032;-80
2021/06/21 07:49:29;;;;;;;;;;;;;;;29.38;40.35;100183.22;4956205;28;20032;-75
2021/06/21 07:51:56;;;;;;;;;;;;;;;29.38;41.22;100174.78;4971288;28;19930;-76
2021/06/21 07:54:23;;;;;;;;;;;;;;;29.44;39.72;100183.56;4972399;28;19926;-82
2021/06/21 07:56:48;;;;;;;;;;;;;;;29.45;39.96;100174.69;4972544;28;20310;-77
2021/06/21 07:59:14;;;;;;;;;;;;;;;29.45;39.45;100173.88;4955177;28;19933;-79
2021/06/21 08:01:40;;;;;;;;;;;;;;;29.52;40.21;100178.63;4974549;28;19930;-76
2021/06/21 08:04:07;;;;;;;;;;;;;;;29.47;39.36;100177.06;4974704;28;19925;-89
2021/06/21 08:06:37;;;;;;;;;;;;;;;29.39;40.04;100175.56;4972921;28;20020;-76
2021/06/21 08:09:03;;;;;;;;;;;;;;;29.42;40.58;100186.00;4972596;28;19926;-77
2021/06/21 08:11:28;;;;;;;;;;;;;;;29.39;41.17;100175.56;4973116;28;20014;-81
2021/06/21 08:13:56;;;;;;;;;;;;;;;29.41;39.74;100182.38;4973713;28;19953;-92
2021/06/21 08:16:23;;;;;;;;;;;;;;;29.47;41.26;100177.06;4972400;28;20421;-77
2021/06/21 08:18:49;;;;;;;;;;;;;;;29.45;40.79;100182.34;4972553;28;19930;-87
2021/06/21 08:21:15;;;;;;;;;;;;;;;29.43;38.54;100181.94;4971036;28;19926;-91
2021/06/21 08:23:41;;;;;;;;;;;;;;;29.45;40.26;100173.88;4971976;28;19973;-86
2021/06/21 08:26:10;;;;;;;;;;;;;;;29.54;41.66;100185.44;4972716;28;19976;-90
2021/06/21 08:28:36;;;;;;;;;;;;;;;29.63;41.42;100176.50;4972149;28;19926;-90
2021/06/21 08:31:02;;;;;;;;;;;;;;;29.71;40.98;100181.63;4971746;28;19953;-77
2021/06/21 08:33:27;;;;;;;;;;;;;;;29.78;39.95;100169.47;4971053;28;19965;-86
2021/06/21 08:35:54;;;;;;;;;;;;;;;29.80;40.12;100177.47;4972155;28;20024;-88
2021/06/21 08:38:20;;;;;;;;;;;;;;;29.83;40.13;100173.81;4971347;28;21314;-90
2021/06/21 08:40:46;;;;;;;;;;;;;;;29.86;39.40;100173.75;4970812;28;19926;-83
2021/06/21 08:43:13;;;;;;;;;;;;;;;29.88;40.34;100184.63;4971406;28;19932;-89
2021/06/21 08:45:38;;;;;;;;;;;;;;;29.88;37.83;100170.53;4971324;28;19972;-75
2021/06/21 08:48:08;;;;;;;;;;;;;;;29.87;39.80;100166.13;4971726;28;19965;-84
2021/06/21 08:50:35;;;;;;;;;;;;;;;29.94;38.71;100171.66;4971355;28;19926;-76
2021/06/21 08:53:01;;;;;;;;;;;;;;;29.96;34.88;100167.16;4970620;28;19942;-74
2021/06/21 08:55:27;;;;;;;;;;;;;;;29.99;36.53;100179.63;4972426;28;19952;-74
2021/06/21 08:57:53;;;;;;;;;;;;;;;30.00;36.78;100171.97;4970726;28;19934;-75
2021/06/21 09:00:22;;;;;;;;;;;;;;;30.01;36.59;100173.56;4949199;28;19926;-75
2021/06/21 09:02:48;;;;;;;;;;;;;;;30.06;37.03;100164.63;4967707;28;19925;-84
2021/06/21 09:05:17;;;;;;;;;;;;;;;30.10;37.04;100168.19;4971413;28;19962;-77
2021/06/21 09:07:44;;;;;;;;;;;;;;;30.10;36.47;100169.00;4971909;28;19926;-79
2021/06/21 09:10:22;;;;;;;;;;;;;;;30.09;36.44;100175.84;4972772;28;19996;-77
2021/06/21 09:13:00;;;;;;;;;;;;;;;30.11;35.80;100169.78;4972678;28;19926;-86
2021/06/21 09:15:28;;;;;;;;;;;;;;;30.15;36.91;100168.50;4980820;28;20020;-83
2021/06/21 09:17:57;;;;;;;;;;;;;;;30.24;37.18;100170.84;4970170;28;19933;-87
2021/06/21 09:20:23;;;;;;;;;;;;;;;30.17;36.73;100154.00;4971814;28;20430;-81
2021/06/21 09:23:01;;;;;;;;;;;;;;;30.32;37.03;100160.22;4972104;28;19957;-82
2021/06/21 09:25:27;;;;;;;;;;;;;;;30.35;36.55;100151.72;4971450;28;19926;-81
2021/06/21 09:28:03;;;;;;;;;;;;;;;30.38;36.73;100162.13;4971272;28;20036;-83
2021/06/21 09:30:29;;;;;;;;;;;;;;;30.42;36.50;100160.03;4970928;28;19930;-79
2021/06/21 09:32:58;;;;;;;;;;;;;;;30.39;35.14;100158.06;4971049;28;19966;-84
2021/06/21 09:35:29;;;;;;;;;;;;;;;30.33;34.55;100159.81;4970886;28;19933;-83
2021/06/21 09:38:00;;;;;;;;;;;;;;;30.28;36.11;100162.31;4970009;28;20036;-86
2021/06/21 09:40:27;;;;;;;;;;;;;;;30.31;36.09;100164.28;4972246;28;19926;-86
2021/06/21 09:42:52;;;;;;;;;;;;;;;30.34;36.71;100166.25;4972726;28;19932;-78
2021/06/21 09:45:18;;;;;;;;;;;;;;;30.36;34.84;100164.56;4971778;28;20020;-94
2021/06/21 09:47:44;;;;;;;;;;;;;;;30.41;34.99;100163.31;4972299;28;19980;-88
2021/06/21 09:50:13;;;;;;;;;;;;;;;30.48;35.00;100166.00;4972481;28;19934;-78
2021/06/21 09:52:51;;;;;;;;;;;;;;;30.55;35.36;100165.88;4972303;28;19929;-91
2021/06/21 09:55:21;;;;;;;;;;;;;;;30.60;35.34;100156.94;4977379;28;19933;-90
2021/06/21 09:57:48;;;;;;;;;;;;;;;30.67;35.49;100161.66;4975389;28;20029;-78
2021/06/21 10:00:14;;;;;;;;;;;;;;;30.73;35.79;100159.94;4974982;28;19989;-79
2021/06/21 10:02:40;;;;;;;;;;;;;;;30.72;35.96;100163.19;4974901;28;19945;-80
2021/06/21 10:05:18;;;;;;;;;;;;;;;30.70;36.28;100157.97;4958712;28;20380;-78
2021/06/21 10:07:45;;;;;;;;;;;;;;;30.75;36.43;100153.84;4975392;28;19926;-77
2021/06/21 10:10:11;;;;;;;;;;;;;;;30.76;36.22;100149.78;4974033;28;19937;-83
2021/06/21 10:12:38;;;;;;;;;;;;;;;30.79;36.00;100143.31;4973658;28;19932;-81
2021/06/21 10:15:08;;;;;;;;;;;;;;;30.80;35.77;100139.28;4974070;28;19922;-87
2021/06/21 10:17:36;;;;;;;;;;;;;;;30.82;35.58;100142.47;4972839;28;19926;-87
2021/06/21 10:20:03;;;;;;;;;;;;;;;30.83;35.18;100144.88;4973811;28;19926;-87
2021/06/21 10:22:29;;;;;;;;;;;;;;;30.87;34.86;100144.78;4971948;28;19978;-76
2021/06/21 10:24:56;;;;;;;;;;;;;;;30.92;35.03;100143.50;4956294;28;20339;-87
2021/06/21 10:27:24;;;;;;;;;;;;;;;30.99;34.92;100143.34;4973582;28;19951;-82
2021/06/21 10:29:50;;;;;;;;;;;;;;;31.08;34.97;100141.56;4973962;28;19965;-78
2021/06/21 10:32:17;;;;;;;;;;;;;;;31.19;35.14;100146.97;4974118;28;20327;-88
2021/06/21 10:34:43;;;;;;;;;;;;;;;31.25;35.19;100141.63;4974327;28;19977;-83
2021/06/21 10:37:27;;;;;;;;;;;;;;;31.20;35.54;100133.69;4973789;28;20387;-87
2021/06/21 10:39:59;;;;;;;;;;;;;;;31.20;34.49;100128.03;4974058;28;20069;-82
2021/06/21 10:42:25;;;;;;;;;;;;;;;31.21;34.48;100127.59;4973490;28;19926;-79
2021/06/21 10:44:59;;;;;;;;;;;;;;;31.19;35.19;100123.59;4973270;28;19963;-79
2021/06/21 10:47:35;;;;;;;;;;;;;;;31.24;34.56;100125.91;4973966;28;19981;-79
2021/06/21 10:50:02;;;;;;;;;;;;;;;31.26;34.29;100121.44;4973710;28;19958;-79
2021/06/21 10:52:30;;;;;;;;;;;;;;;31.24;34.38;100115.41;4968386;28;20013;-79
2021/06/21 10:55:15;;;;;;;;;;;;;;;31.29;33.46;100108.44;4958856;28;20021;-83
2021/06/21 10:57:41;;;;;;;;;;;;;;;31.38;34.60;100114.34;4972985;28;19937;-83
2021/06/21 11:00:10;;;;;;;;;;;;;;;31.44;34.34;100108.97;4973014;28;19926;-85
2021/06/21 11:02:37;;;;;;;;;;;;;;;31.49;32.96;100109.28;4965303;28;19931;-79
2021/06/21 11:05:03;;;;;;;;;;;;;;;31.48;33.28;100102.00;4970824;28;20429;-87
2021/06/21 11:07:29;;;;;;;;;;;;;;;31.49;32.89;100108.44;4977000;28;19925;-81
2021/06/21 11:10:01;;;;;;;;;;;;;;;31.47;32.03;100106.06;4967066;28;19926;-80
2021/06/21 11:12:41;;;;;;;;;;;;;;;31.52;33.31;100099.91;4972064;28;19930;-81
2021/06/21 11:15:09;;;;;;;;;;;;;;;31.57;33.75;100107.88;4972813;28;19933;-81
2021/06/21 11:17:50;;;;;;;;;;;;;;;31.62;32.63;100100.88;4958659;28;19926;-82
2021/06/21 11:20:35;;;;;;;;;;;;;;;31.64;33.17;100095.59;4964710;28;20387;-83
2021/06/21 11:23:05;;;;;;;;;;;;;;;31.52;33.96;100102.75;4970923;28;20381;-81
2021/06/21 11:25:50;;;;;;;;;;;;;;;31.56;33.05;100102.66;4971980;28;19938;-86
2021/06/21 11:28:37;;;;;;;;;;;;;;;31.65;33.26;100099.22;4973915;28;20288;-80
2021/06/21 11:31:26;;;;;;;;;;;;;;;31.70;33.56;100098.72;4965747;28;19995;-81
2021/06/21 11:33:57;;;;;;;;;;;;;;;31.76;32.20;100094.13;4973208;28;19926;-81
2021/06/21 11:36:35;;;;;;;;;;;;;;;31.89;32.81;100097.06;4974411;28;19926;-81
2021/06/21 11:39:16;;;;;;;;;;;;;;;31.92;32.78;100093.38;4974158;28;19936;-81
2021/06/21 11:42:10;;;;;;;;;;;;;;;31.91;32.91;100103.88;4973801;28;19926;-80
2021/06/21 11:44:39;;;;;;;;;;;;;;;31.86;32.05;100104.41;4971137;28;20300;-81
2021/06/21 11:47:14;;;;;;;;;;;;;;;31.78;31.76;100108.63;4974011;28;19933;-80
2021/06/21 11:49:46;;;;;;;;;;;;;;;31.86;32.92;100104.41;4973833;28;20041;-80
2021/06/21 11:52:19;;;;;;;;;;;;;;;31.91;33.18;100105.94;4973927;28;19933;-81
2021/06/21 11:54:49;;;;;;;;;;;;;;;31.94;32.09;100090.91;4973731;28;20391;-81
2021/06/21 11:57:15;;;;;;;;;;;;;;;31.90;32.57;100099.47;4974128;28;19926;-80
2021/06/21 11:59:43;;;;;;;;;;;;;;;31.80;31.96;100098.47;4973717;28;19976;-80
2021/06/21 12:02:10;;;;;;;;;;;;;;;31.73;32.49;100095.00;4973629;28;19933;-80
2021/06/21 12:04:36;;;;;;;;;;;;;;;31.82;32.22;100098.00;4973680;28;19930;-81
2021/06/21 12:07:02;;;;;;;;;;;;;;;31.80;32.80;100089.19;4973425;28;19930;-79
2021/06/21 12:09:30;;;;;;;;;;;;;;;31.72;31.95;100097.06;4972820;28;19926;-78
2021/06/21 12:11:56;;;;;;;;;;;;;;;31.69;32.25;100097.94;4973099;28;19949;-77
2021/06/21 12:14:26;;;;;;;;;;;;;;;31.64;32.03;100094.81;4972403;28;20395;-76
2021/06/21 12:17:03;;;;;;;;;;;;;;;31.56;32.15;100097.00;4972306;28;20029;-77
2021/06/21 12:19:29;;;;;;;;;;;;;;;31.53;32.59;100097.88;4955014;28;19937;-78
2021/06/21 12:21:55;;;;;;;;;;;;;;;31.44;32.49;100092.81;4972481;28;20024;-78
2021/06/21 12:24:25;;;;;;;;;;;;;;;31.39;32.45;100098.19;4971661;28;20354;-77
2021/06/21 12:26:53;;;;;;;;;;;;;;;31.30;32.55;100093.09;4971735;28;20491;-77
2021/06/21 12:29:20;;;;;;;;;;;;;;;31.24;32.06;100097.66;4971174;28;20028;-77
2021/06/21 12:31:55;;;;;;;;;;;;;;;31.16;32.26;100093.38;4971353;28;19922;-78
2021/06/21 12:34:40;;;;;;;;;;;;;;;31.16;31.46;100091.38;4971179;28;19973;-77
2021/06/21 12:37:26;;;;;;;;;;;;;;;31.18;32.02;100105.06;4970692;28;19926;-76
2021/06/21 12:39:56;;;;;;;;;;;;;;;31.20;31.97;100092.09;4970172;28;20746;-78
2021/06/21 12:42:23;;;;;;;;;;;;;;;31.18;29.93;100096.59;4953241;28;19921;-77
2021/06/21 12:44:50;;;;;;;;;;;;;;;31.23;32.29;100101.72;4970169;28;20006;-77
2021/06/21 12:47:20;;;;;;;;;;;;;;;31.20;29.61;100092.09;4969950;28;20326;-78
2021/06/21 12:49:47;;;;;;;;;;;;;;;31.19;31.96;100098.16;4969591;28;19925;-77
2021/06/21 12:52:13;;;;;;;;;;;;;;;31.11;32.47;100100.34;4952284;28;19926;-78
2021/06/21 12:54:39;;;;;;;;;;;;;;;31.16;32.91;100090.56;4969438;28;19925;-77
2021/06/21 12:57:05;;;;;;;;;;;;;;;31.31;32.36;100097.50;4969550;28;19926;-77
2021/06/21 12:59:33;;;;;;;;;;;;;;;31.39;32.79;100093.34;4968388;28;19937;-76
2021/06/21 13:02:00;;;;;;;;;;;;;;;31.43;33.50;100084.78;4969165;28;19928;-77
2021/06/21 13:04:26;;;;;;;;;;;;;;;31.45;32.02;100083.09;4968729;28;19922;-78
2021/06/21 13:07:06;;;;;;;;;;;;;;;31.44;31.75;100081.50;4968444;28;20215;-78
2021/06/21 13:09:49;;;;;;;;;;;;;;;31.41;32.09;100085.22;4968256;28;20474;-76
2021/06/21 13:12:34;;;;;;;;;;;;;;;31.30;31.97;100081.81;4968053;28;19926;-82
2021/06/21 13:15:14;;;;;;;;;;;;;;;31.23;31.92;100077.09;4948205;29;19927;-80
2021/06/21 13:17:43;;;;;;;;;;;;;;;31.26;32.09;100079.06;4931411;29;20025;-79
2021/06/21 13:20:10;;;;;;;;;;;;;;;31.30;34.02;100074.13;4947871;29;20417;-79
2021/06/21 13:22:36;;;;;;;;;;;;;;;31.31;32.72;100072.09;4949349;28;20016;-80
2021/06/21 13:25:27;;;;;;;;;;;;;;;31.31;33.05;100075.69;4967122;28;20020;-81
2021/06/21 13:28:01;;;;;;;;;;;;;;;31.34;33.29;100072.03;4964861;28;19925;-81
2021/06/21 13:30:30;;;;;;;;;;;;;;;31.42;31.90;100072.66;4970185;28;19926;-80
2021/06/21 13:32:58;;;;;;;;;;;;;;;31.45;34.31;100063.31;4969507;28;19926;-80
2021/06/21 13:35:24;;;;;;;;;;;;;;;31.50;34.08;100064.84;4964046;28;19926;-80
2021/06/21 13:37:50;;;;;;;;;;;;;;;31.59;33.91;100067.88;4965117;28;19932;-80
2021/06/21 13:40:18;;;;;;;;;;;;;;;31.66;32.48;100066.91;4967117;28;19930;-80
2021/06/21 13:42:52;;;;;;;;;;;;;;;31.69;32.51;100061.19;4967297;28;19926;-79
2021/06/21 13:45:26;;;;;;;;;;;;;;;31.68;33.51;100058.78;4965660;28;19926;-78
2021/06/21 13:47:57;;;;;;;;;;;;;;;31.76;31.62;100060.22;4967870;28;19926;-80
2021/06/21 13:50:36;;;;;;;;;;;;;;;31.83;31.59;100060.81;4966426;28;19957;-79
2021/06/21 13:53:03;;;;;;;;;;;;;;;31.82;33.50;100064.91;4967043;28;19958;-79
2021/06/21 13:55:38;;;;;;;;;;;;;;;31.84;33.02;100064.44;4947850;28;20402;-83
2021/06/21 13:58:04;;;;;;;;;;;;;;;31.87;32.88;100049.44;4967050;28;19948;-81
2021/06/21 14:00:31;;;;;;;;;;;;;;;31.78;33.23;100063.38;4966419;28;20426;-81
2021/06/21 14:02:58;;;;;;;;;;;;;;;31.66;33.56;100061.25;4966712;28;19929;-80
2021/06/21 14:05:26;;;;;;;;;;;;;;;31.62;33.77;100057.69;4965446;28;19977;-79
2021/06/21 14:07:53;;;;;;;;;;;;;;;31.61;33.20;100061.78;4962854;28;19934;-84
2021/06/21 14:10:21;;;;;;;;;;;;;;;31.53;33.35;100061.16;4965162;28;19968;-81
2021/06/21 14:12:49;;;;;;;;;;;;;;;31.45;32.40;100060.50;4965644;28;19926;-80
2021/06/21 14:15:15;;;;;;;;;;;;;;;31.35;33.44;100058.69;4965042;28;20427;-79
2021/06/21 14:17:41;;;;;;;;;;;;;;;31.35;33.03;100065.16;4964650;28;19930;-78
2021/06/21 14:20:08;;;;;;;;;;;;;;;31.43;33.02;100050.88;4964598;28;19930;-74
2021/06/21 14:22:34;;;;;;;;;;;;;;;31.49;32.41;100051.94;4964628;28;20017;-83
2021/06/21 14:25:00;;;;;;;;;;;;;;;31.59;32.05;100056.56;4964747;28;19926;-81
2021/06/21 14:27:26;;;;;;;;;;;;;;;31.68;32.07;100042.59;4962423;28;20009;-83
2021/06/21 14:29:52;;;;;;;;;;;;;;;31.74;31.02;100046.50;4960110;28;20415;-79
2021/06/21 14:32:18;;;;;;;;;;;;;;;31.80;31.59;100046.78;4964157;28;19933;-76
2021/06/21 14:34:44;;;;;;;;;;;;;;;31.85;31.77;100042.63;4964611;28;20025;-77
2021/06/21 14:37:09;;;;;;;;;;;;;;;31.89;31.22;100044.16;4947029;28;19926;-75
2021/06/21 14:39:35;;;;;;;;;;;;;;;31.90;31.45;100042.13;4959062;28;19927;-78
2021/06/21 14:42:02;;;;;;;;;;;;;;;31.95;30.82;100048.03;4959144;28;19930;-78
2021/06/21 14:44:28;;;;;;;;;;;;;;;31.93;31.58;100050.53;4956419;28;20280;-78
2021/06/21 14:46:54;;;;;;;;;;;;;;;31.88;31.90;100047.41;4957172;28;19937;-75
2021/06/21 14:49:19;;;;;;;;;;;;;;;31.90;30.29;100042.13;4958211;28;19926;-76
2021/06/21 14:51:45;;;;;;;;;;;;;;;31.99;30.74;100042.31;4962946;28;20463;-76
2021/06/21 14:54:14;;;;;;;;;;;;;;;32.08;30.09;100047.34;4954587;28;19926;-77
2021/06/21 14:56:40;;;;;;;;;;;;;;;32.16;29.68;100040.28;4962046;28;19926;-76
2021/06/21 14:59:06;;;;;;;;;;;;;;;32.22;29.81;100041.28;4960021;28;20432;-76
2021/06/21 15:01:32;;;;;;;;;;;;;;;32.28;28.84;100036.69;4961077;28;20388;-75
2021/06/21 15:03:57;;;;;;;;;;;;;;;32.34;29.01;100032.09;4959944;28;19959;-77
2021/06/21 15:06:26;;;;;;;;;;;;;;;32.50;28.91;100028.47;4959520;28;20021;-77
2021/06/21 15:08:52;;;;;;;;;;;;;;;32.57;28.85;100024.66;4942456;28;19930;-82
2021/06/21 15:11:18;;;;;;;;;;;;;;;32.61;28.52;100019.66;4946022;28;20468;-79
2021/06/21 15:13:44;;;;;;;;;;;;;;;32.74;28.64;100015.63;4959952;28;19926;-77
2021/06/21 15:16:10;;;;;;;;;;;;;;;32.90;28.34;100023.28;4959172;28;19930;-77
2021/06/21 15:18:37;;;;;;;;;;;;;;;32.98;27.79;100026.72;4959969;28;19926;-77
2021/06/21 15:21:03;;;;;;;;;;;;;;;33.00;28.11;100010.06;4959285;28;20906;-76
2021/06/21 15:23:29;;;;;;;;;;;;;;;33.02;28.03;100020.97;4958231;28;20392;-82
2021/06/21 15:25:56;;;;;;;;;;;;;;;33.08;27.69;100010.66;4956920;28;19949;-75
2021/06/21 15:28:22;;;;;;;;;;;;;;;33.07;27.61;100023.22;4958536;28;20010;-77
2021/06/21 15:30:48;;;;;;;;;;;;;;;33.17;27.40;100022.91;4957964;28;19926;-78
2021/06/21 15:33:14;;;;;;;;;;;;;;;33.24;26.93;100009.78;4958212;28;20474;-76
2021/06/21 15:35:41;;;;;;;;;;;;;;;33.26;27.91;100010.91;4957576;28;19989;-76
2021/06/21 15:38:07;;;;;;;;;;;;;;;33.14;27.94;100003.19;4957568;28;19930;-78
2021/06/21 15:40:38;;;;;;;;;;;;;;;33.18;29.11;100015.22;4957664;28;19984;-77
2021/06/21 15:43:04;;;;;;;;;;;;;;;33.14;30.34;100018.13;4957390;28;19948;-79
2021/06/21 15:45:30;;;;;;;;;;;;;;;33.07;30.16;100017.56;4951336;28;19981;-76
2021/06/21 15:47:58;;;;;;;;;;;;;;;33.04;29.76;100015.63;4956063;28;19968;-76
2021/06/21 15:50:25;;;;;;;;;;;;;;;32.95;29.83;100022.75;4971674;28;19926;-82
2021/06/21 15:52:52;;;;;;;;;;;;;;;32.88;30.70;100011.63;4971695;28;20323;-77
2021/06/21 15:55:20;;;;;;;;;;;;;;;32.82;30.34;100019.06;4971901;28;19932;-77
2021/06/21 15:57:51;;;;;;;;;;;;;;;32.65;31.93;100007.03;4970498;28;19972;-76
2021/06/21 16:00:18;;;;;;;;;;;;;;;32.53;31.07;100009.81;4971614;28;20445;-77
2021/06/21 16:02:45;;;;;;;;;;;;;;;32.42;32.11;100015.75;4960531;28;19926;-76
2021/06/21 16:05:11;;;;;;;;;;;;;;;32.31;31.61;100018.84;4965930;28;19952;-76
2021/06/21 16:07:39;;;;;;;;;;;;;;;32.21;32.11;100022.75;4969354;28;19926;-82
2021/06/21 16:10:05;;;;;;;;;;;;;;;32.01;32.11;100017.97;4965010;28;20542;-77
2021/06/21 16:12:31;;;;;;;;;;;;;;;31.75;31.99;100002.06;4971671;28;19937;-78
2021/06/21 16:14:57;;;;;;;;;;;;;;;31.63;32.17;100012.06;4963734;28;19926;-77
2021/06/21 16:17:26;;;;;;;;;;;;;;;31.53;32.33;100013.91;4960824;28;19932;-77
2021/06/21 16:19:54;;;;;;;;;;;;;;;31.33;32.09;100013.16;4967823;28;19957;-86
2021/06/21 16:22:20;;;;;;;;;;;;;;;31.17;33.81;100013.88;4968225;28;20303;-80
2021/06/21 16:24:47;;;;;;;;;;;;;;;31.01;34.13;100011.78;4971508;28;19977;-81
2021/06/21 16:27:13;;;;;;;;;;;;;;;30.87;34.82;100012.91;4970945;28;19961;-81
2021/06/21 16:29:39;;;;;;;;;;;;;;;30.70;35.10;100018.88;4971065;28;19926;-81
2021/06/21 16:32:05;;;;;;;;;;;;;;;30.53;35.00;100009.50;4971437;28;19938;-80
2021/06/21 16:34:32;;;;;;;;;;;;;;;30.43;35.76;100005.66;4957860;28;19931;-80
2021/06/21 16:36:58;;;;;;;;;;;;;;;30.25;36.85;100008.03;4961283;28;19922;-81
2021/06/21 16:39:38;;;;;;;;;;;;;;;29.85;41.16;100007.88;4971086;28;19926;-81
2021/06/21 16:42:04;;;;;;;;;;;;;;;29.73;42.40;100007.28;4969849;28;20433;-81